Terminal Aerodrome Forecast
Issued by NWS Corpus Christi, TX

Home | Current Version | Previous Version | Text Only | Print | Product List | Glossary On
Versions: 1 2 3 4 5 6 7 8 9 10 11 12 13 14 15 16 17 18
000
FTUS44 KCRP 021100
TAFVCT
TAF
KVCT 021128Z 0212/0312 13004KT P6SM SCT012
      TEMPO 0212/0214 5SM BR BKN012
     FM021500 15010KT P6SM VCSH BKN022
     FM021800 14014G20KT P6SM VCTS BKN035CB
      TEMPO 0218/0222 3SM TSRA OVC025CB
     FM030100 14011KT P6SM SCT020 BKN120
     FM030800 13008KT P6SM BKN012 BKN150=

USA.gov is the U.S. government's official web portal to all federal, state and local government web resources and services.